MXA4923 MMGL-MMAA
Flight info
| Callsign | MXA4923 |
|---|---|
| Flight time | 0h 57m |
| Altitude | 37000 |
| Route | EMIRI1B EMIRI DCT ZIH J1 AVURO AVURO1B |
| Aircraft | A20N/M-SDE2E3FGHIRWXY/LB1 |
Departure
| Time | 2026-05-06 01:11 |
|---|---|
| Airport | Guadalajara International Airport (MMGL) |
Arrival
| Time | 2026-05-06 02:08 |
|---|---|
| Airport | General Juan N. Álvarez International Airport (MMAA) |
| Time | Latitude | Longitude | Altitude | Speed | Heading |
|---|---|---|---|---|---|
| 2026-05-06 00:32 | 20.52442 | -103.30128 | 5017 ft | 0 kts | 19° |
| 2026-05-06 01:00 | 20.52435 | -103.30130 | 5015 ft | 1 kts | 19° |
| 2026-05-06 01:00 | 20.52428 | -103.30133 | 5019 ft | 1 kts | 19° |
| 2026-05-06 01:01 | 20.52421 | -103.30135 | 5019 ft | 1 kts | 19° |
| 2026-05-06 01:01 | 20.52413 | -103.30138 | 5019 ft | 1 kts | 19° |
| 2026-05-06 01:01 | 20.52406 | -103.30141 | 5017 ft | 1 kts | 10° |
| 2026-05-06 01:01 | 20.52399 | -103.30142 | 5019 ft | 1 kts | 347° |
| 2026-05-06 01:02 | 20.52391 | -103.30140 | 5018 ft | 1 kts | 324° |
| 2026-05-06 01:02 | 20.52385 | -103.30135 | 5019 ft | 1 kts | 301° |
| 2026-05-06 01:02 | 20.52381 | -103.30128 | 5019 ft | 1 kts | 276° |
| 2026-05-06 01:04 | 20.52382 | -103.30128 | 5019 ft | 1 kts | 276° |
| 2026-05-06 01:04 | 20.52384 | -103.30141 | 5019 ft | 3 kts | 283° |
| 2026-05-06 01:05 | 20.52391 | -103.30170 | 5019 ft | 5 kts | 283° |
| 2026-05-06 01:05 | 20.52393 | -103.30212 | 5018 ft | 6 kts | 255° |
| 2026-05-06 01:05 | 20.52356 | -103.30229 | 5019 ft | 7 kts | 196° |
| 2026-05-06 01:05 | 20.52302 | -103.30245 | 5015 ft | 10 kts | 196° |
| 2026-05-06 01:06 | 20.52227 | -103.30271 | 5015 ft | 13 kts | 199° |
| 2026-05-06 01:06 | 20.52173 | -103.30220 | 5017 ft | 12 kts | 110° |
| 2026-05-06 01:06 | 20.52144 | -103.30127 | 5018 ft | 14 kts | 108° |
| 2026-05-06 01:06 | 20.52111 | -103.30018 | 5019 ft | 16 kts | 108° |
| 2026-05-06 01:07 | 20.52071 | -103.29899 | 5017 ft | 18 kts | 111° |
| 2026-05-06 01:07 | 20.52057 | -103.29771 | 5019 ft | 18 kts | 104° |
| 2026-05-06 01:07 | 20.52004 | -103.29645 | 5016 ft | 19 kts | 116° |
| 2026-05-06 01:07 | 20.51941 | -103.29512 | 5019 ft | 21 kts | 124° |
| 2026-05-06 01:08 | 20.51849 | -103.29387 | 5014 ft | 22 kts | 130° |
| 2026-05-06 01:08 | 20.51756 | -103.29259 | 5018 ft | 21 kts | 125° |
| 2026-05-06 01:08 | 20.51661 | -103.29166 | 5016 ft | 14 kts | 174° |
| 2026-05-06 01:08 | 20.51567 | -103.29203 | 5016 ft | 15 kts | 203° |
| 2026-05-06 01:09 | 20.51535 | -103.29216 | 5017 ft | 0 kts | 202° |
| 2026-05-06 01:09 | 20.51534 | -103.29217 | 5017 ft | 1 kts | 202° |
| 2026-05-06 01:09 | 20.51515 | -103.29225 | 5017 ft | 5 kts | 202° |
| 2026-05-06 01:10 | 20.51467 | -103.29248 | 5012 ft | 13 kts | 206° |
| 2026-05-06 01:10 | 20.51453 | -103.29384 | 5015 ft | 43 kts | 292° |
| 2026-05-06 01:10 | 20.51664 | -103.29893 | 5016 ft | 105 kts | 294° |
| 2026-05-06 01:10 | 20.52037 | -103.30772 | 5021 ft | 153 kts | 294° |
| 2026-05-06 01:11 | 20.52506 | -103.31901 | 5290 ft | 168 kts | 294° |
| 2026-05-06 01:11 | 20.53013 | -103.33031 | 5870 ft | 172 kts | 295° |
| 2026-05-06 01:11 | 20.53548 | -103.34194 | 6417 ft | 176 kts | 295° |
| 2026-05-06 01:11 | 20.54070 | -103.35374 | 6940 ft | 183 kts | 294° |
| 2026-05-06 01:12 | 20.54623 | -103.36673 | 7186 ft | 202 kts | 293° |
| 2026-05-06 01:12 | 20.55219 | -103.38118 | 7369 ft | 225 kts | 292° |
| 2026-05-06 01:12 | 20.55876 | -103.39730 | 7533 ft | 247 kts | 292° |
| 2026-05-06 01:12 | 20.56473 | -103.41502 | 7866 ft | 263 kts | 277° |
| 2026-05-06 01:13 | 20.56334 | -103.43501 | 8073 ft | 282 kts | 251° |
| 2026-05-06 01:13 | 20.55299 | -103.45292 | 8586 ft | 287 kts | 224° |
| 2026-05-06 01:13 | 20.53615 | -103.46427 | 9194 ft | 291 kts | 199° |
| 2026-05-06 01:13 | 20.51612 | -103.46678 | 9828 ft | 295 kts | 174° |
| 2026-05-06 01:14 | 20.47947 | -103.44482 | 10566 ft | 329 kts | 134° |
| 2026-05-06 01:14 | 20.46488 | -103.42611 | 11425 ft | 323 kts | 129° |
| 2026-05-06 01:14 | 20.45151 | -103.40753 | 12576 ft | 312 kts | 129° |
| 2026-05-06 01:15 | 20.43822 | -103.38919 | 13337 ft | 313 kts | 129° |
| 2026-05-06 01:15 | 20.42471 | -103.37097 | 14089 ft | 314 kts | 130° |
| 2026-05-06 01:15 | 20.41096 | -103.35276 | 14813 ft | 315 kts | 130° |
| 2026-05-06 01:15 | 20.39729 | -103.33480 | 15515 ft | 317 kts | 130° |
| 2026-05-06 01:16 | 20.38311 | -103.31625 | 15865 ft | 332 kts | 130° |
| 2026-05-06 01:16 | 20.36808 | -103.29666 | 16047 ft | 350 kts | 130° |
| 2026-05-06 01:16 | 20.35226 | -103.27602 | 16230 ft | 367 kts | 130° |
| 2026-05-06 01:16 | 20.33593 | -103.25471 | 16712 ft | 372 kts | 130° |
| 2026-05-06 01:17 | 20.31954 | -103.23328 | 17411 ft | 373 kts | 130° |
| 2026-05-06 01:17 | 20.30307 | -103.21176 | 18070 ft | 375 kts | 130° |
| 2026-05-06 01:17 | 20.28653 | -103.19014 | 18659 ft | 378 kts | 130° |
| 2026-05-06 01:17 | 20.26983 | -103.16834 | 19233 ft | 380 kts | 130° |
| 2026-05-06 01:18 | 20.25307 | -103.14647 | 19813 ft | 382 kts | 130° |
| 2026-05-06 01:18 | 20.23638 | -103.12470 | 20326 ft | 385 kts | 130° |
| 2026-05-06 01:18 | 20.21937 | -103.10252 | 20867 ft | 388 kts | 130° |
| 2026-05-06 01:18 | 20.20223 | -103.08020 | 21356 ft | 390 kts | 131° |
| 2026-05-06 01:19 | 20.18501 | -103.05778 | 21871 ft | 392 kts | 131° |
| 2026-05-06 01:19 | 20.16761 | -103.03512 | 22353 ft | 395 kts | 131° |
| 2026-05-06 01:19 | 20.15017 | -103.01241 | 22807 ft | 398 kts | 131° |
| 2026-05-06 01:19 | 20.13259 | -102.98952 | 23202 ft | 401 kts | 131° |
| 2026-05-06 01:20 | 20.11484 | -102.96643 | 23676 ft | 403 kts | 131° |
| 2026-05-06 01:20 | 20.09703 | -102.94326 | 24176 ft | 404 kts | 131° |
| 2026-05-06 01:20 | 20.07934 | -102.92027 | 24540 ft | 408 kts | 131° |
| 2026-05-06 01:20 | 20.06126 | -102.89678 | 24905 ft | 412 kts | 131° |
| 2026-05-06 01:21 | 20.04297 | -102.87305 | 25253 ft | 415 kts | 131° |
| 2026-05-06 01:21 | 20.02457 | -102.84916 | 25605 ft | 419 kts | 131° |
| 2026-05-06 01:21 | 20.00600 | -102.82509 | 25940 ft | 423 kts | 131° |
| 2026-05-06 01:21 | 19.98726 | -102.80080 | 26290 ft | 425 kts | 131° |
| 2026-05-06 01:22 | 19.96847 | -102.77646 | 26667 ft | 427 kts | 131° |
| 2026-05-06 01:22 | 19.94953 | -102.75192 | 26967 ft | 431 kts | 131° |
| 2026-05-06 01:22 | 19.93068 | -102.72751 | 27249 ft | 434 kts | 131° |
| 2026-05-06 01:22 | 19.91144 | -102.70260 | 27559 ft | 437 kts | 131° |
| 2026-05-06 01:23 | 19.89209 | -102.67754 | 27873 ft | 439 kts | 131° |
| 2026-05-06 01:23 | 19.87259 | -102.65231 | 28134 ft | 443 kts | 131° |
| 2026-05-06 01:23 | 19.85295 | -102.62692 | 28441 ft | 446 kts | 131° |
| 2026-05-06 01:23 | 19.83309 | -102.60147 | 28715 ft | 448 kts | 133° |
| 2026-05-06 01:24 | 19.81097 | -102.57814 | 28990 ft | 448 kts | 141° |
| 2026-05-06 01:24 | 19.78596 | -102.55825 | 29250 ft | 449 kts | 149° |
| 2026-05-06 01:24 | 19.75862 | -102.54222 | 29529 ft | 450 kts | 156° |
| 2026-05-06 01:24 | 19.73051 | -102.52830 | 29817 ft | 452 kts | 156° |
| 2026-05-06 01:25 | 19.70188 | -102.51399 | 30096 ft | 454 kts | 156° |
| 2026-05-06 01:25 | 19.67351 | -102.49977 | 30722 ft | 446 kts | 156° |
| 2026-05-06 01:25 | 19.64558 | -102.48575 | 31318 ft | 443 kts | 156° |
| 2026-05-06 01:25 | 19.61764 | -102.47175 | 31617 ft | 445 kts | 156° |
| 2026-05-06 01:26 | 19.58960 | -102.45772 | 31999 ft | 445 kts | 156° |
| 2026-05-06 01:26 | 19.56168 | -102.44374 | 32375 ft | 444 kts | 156° |
| 2026-05-06 01:26 | 19.53369 | -102.42975 | 32747 ft | 443 kts | 156° |
| 2026-05-06 01:26 | 19.50577 | -102.41580 | 33097 ft | 443 kts | 156° |
| 2026-05-06 01:27 | 19.47788 | -102.40186 | 33419 ft | 443 kts | 156° |
| 2026-05-06 01:27 | 19.45004 | -102.38795 | 33741 ft | 442 kts | 156° |
| 2026-05-06 01:27 | 19.42253 | -102.37421 | 34056 ft | 442 kts | 156° |
| 2026-05-06 01:27 | 19.39467 | -102.36032 | 34360 ft | 441 kts | 156° |
| 2026-05-06 01:28 | 19.36695 | -102.34649 | 34684 ft | 440 kts | 156° |
| 2026-05-06 01:28 | 19.33925 | -102.33268 | 34965 ft | 439 kts | 156° |
| 2026-05-06 01:28 | 19.31162 | -102.31891 | 35237 ft | 438 kts | 156° |
| 2026-05-06 01:28 | 19.28404 | -102.30516 | 35500 ft | 437 kts | 156° |
| 2026-05-06 01:29 | 19.25650 | -102.29144 | 35727 ft | 438 kts | 156° |
| 2026-05-06 01:29 | 19.22869 | -102.27759 | 35772 ft | 443 kts | 156° |
| 2026-05-06 01:29 | 19.17222 | -102.24949 | 35876 ft | 452 kts | 156° |
| 2026-05-06 01:30 | 19.14407 | -102.23549 | 36048 ft | 453 kts | 156° |
| 2026-05-06 01:30 | 19.11554 | -102.22131 | 36278 ft | 453 kts | 156° |
| 2026-05-06 01:30 | 19.08701 | -102.20713 | 36495 ft | 453 kts | 156° |
| 2026-05-06 01:30 | 19.05852 | -102.19297 | 36735 ft | 452 kts | 156° |
| 2026-05-06 01:31 | 19.03012 | -102.17886 | 37032 ft | 449 kts | 156° |
| 2026-05-06 01:31 | 19.00194 | -102.16486 | 37132 ft | 446 kts | 156° |
| 2026-05-06 01:31 | 18.94609 | -102.13715 | 37138 ft | 442 kts | 156° |
| 2026-05-06 01:32 | 18.89031 | -102.10950 | 37135 ft | 443 kts | 156° |
| 2026-05-06 01:32 | 18.83435 | -102.08178 | 37128 ft | 443 kts | 156° |
| 2026-05-06 01:33 | 18.77882 | -102.05429 | 37120 ft | 443 kts | 156° |
| 2026-05-06 01:33 | 18.72298 | -102.02666 | 37110 ft | 443 kts | 156° |
| 2026-05-06 01:34 | 18.66710 | -101.99904 | 37112 ft | 443 kts | 156° |
| 2026-05-06 01:34 | 18.61126 | -101.97144 | 37111 ft | 443 kts | 156° |
| 2026-05-06 01:35 | 18.55542 | -101.94389 | 37109 ft | 443 kts | 156° |
| 2026-05-06 01:35 | 18.49947 | -101.91631 | 37092 ft | 444 kts | 156° |
| 2026-05-06 01:36 | 18.44350 | -101.88872 | 37080 ft | 443 kts | 156° |
| 2026-05-06 01:36 | 18.38748 | -101.86109 | 37005 ft | 445 kts | 156° |
| 2026-05-06 01:37 | 18.33186 | -101.83370 | 36962 ft | 442 kts | 156° |
| 2026-05-06 01:37 | 18.27598 | -101.80622 | 36949 ft | 443 kts | 156° |
| 2026-05-06 01:38 | 18.22237 | -101.77439 | 36935 ft | 445 kts | 140° |
| 2026-05-06 01:38 | 18.17968 | -101.72688 | 36921 ft | 448 kts | 132° |
| 2026-05-06 01:39 | 18.13804 | -101.67823 | 36907 ft | 446 kts | 134° |
| 2026-05-06 01:39 | 18.09518 | -101.63113 | 36899 ft | 445 kts | 135° |
| 2026-05-06 01:40 | 18.05224 | -101.58483 | 36883 ft | 444 kts | 135° |
| 2026-05-06 01:40 | 18.00905 | -101.53834 | 36870 ft | 444 kts | 135° |
| 2026-05-06 01:41 | 17.96591 | -101.49194 | 36866 ft | 444 kts | 135° |
| 2026-05-06 01:41 | 17.92278 | -101.44567 | 36631 ft | 441 kts | 135° |
| 2026-05-06 01:42 | 17.90135 | -101.42257 | 36074 ft | 442 kts | 135° |
| 2026-05-06 01:42 | 17.87975 | -101.39929 | 35187 ft | 448 kts | 136° |
| 2026-05-06 01:42 | 17.85776 | -101.37563 | 34091 ft | 457 kts | 136° |
| 2026-05-06 01:42 | 17.83522 | -101.35142 | 32932 ft | 467 kts | 136° |
| 2026-05-06 01:43 | 17.82011 | -101.33522 | 32187 ft | 470 kts | 136° |
| 2026-05-06 01:43 | 17.79719 | -101.31064 | 31268 ft | 471 kts | 135° |
| 2026-05-06 01:43 | 17.76678 | -101.27800 | 30055 ft | 472 kts | 135° |
| 2026-05-06 01:43 | 17.74377 | -101.25333 | 29118 ft | 472 kts | 135° |
| 2026-05-06 01:44 | 17.72083 | -101.22874 | 28365 ft | 469 kts | 135° |
| 2026-05-06 01:44 | 17.70578 | -101.21262 | 27998 ft | 463 kts | 135° |
| 2026-05-06 01:44 | 17.68353 | -101.18877 | 27661 ft | 450 kts | 134° |
| 2026-05-06 01:44 | 17.66190 | -101.16562 | 27411 ft | 437 kts | 134° |
| 2026-05-06 01:45 | 17.64093 | -101.14319 | 27164 ft | 426 kts | 134° |
| 2026-05-06 01:45 | 17.62022 | -101.12103 | 26912 ft | 427 kts | 134° |
| 2026-05-06 01:45 | 17.59934 | -101.09870 | 26658 ft | 430 kts | 134° |
| 2026-05-06 01:45 | 17.57847 | -101.07639 | 26401 ft | 427 kts | 134° |
| 2026-05-06 01:46 | 17.55766 | -101.05419 | 26159 ft | 425 kts | 134° |
| 2026-05-06 01:46 | 17.53699 | -101.03210 | 25914 ft | 423 kts | 134° |
| 2026-05-06 01:46 | 17.51636 | -101.01008 | 25657 ft | 422 kts | 134° |
| 2026-05-06 01:46 | 17.49608 | -100.98842 | 25411 ft | 421 kts | 134° |
| 2026-05-06 01:47 | 17.47561 | -100.96658 | 25164 ft | 419 kts | 134° |
| 2026-05-06 01:47 | 17.45523 | -100.94483 | 24911 ft | 416 kts | 134° |
| 2026-05-06 01:47 | 17.43495 | -100.92319 | 24662 ft | 414 kts | 134° |
| 2026-05-06 01:47 | 17.41476 | -100.90168 | 24411 ft | 413 kts | 134° |
| 2026-05-06 01:48 | 17.39490 | -100.88050 | 24164 ft | 412 kts | 134° |
| 2026-05-06 01:48 | 17.37488 | -100.85918 | 23912 ft | 409 kts | 134° |
| 2026-05-06 01:48 | 17.35497 | -100.83796 | 23661 ft | 407 kts | 134° |
| 2026-05-06 01:48 | 17.33511 | -100.81682 | 23410 ft | 406 kts | 134° |
| 2026-05-06 01:49 | 17.31534 | -100.79580 | 23161 ft | 405 kts | 134° |
| 2026-05-06 01:49 | 17.29557 | -100.77477 | 22918 ft | 403 kts | 134° |
| 2026-05-06 01:49 | 17.27592 | -100.75390 | 22673 ft | 401 kts | 133° |
| 2026-05-06 01:49 | 17.25643 | -100.73316 | 22413 ft | 399 kts | 133° |
| 2026-05-06 01:50 | 17.23738 | -100.71201 | 22157 ft | 398 kts | 129° |
| 2026-05-06 01:50 | 17.22110 | -100.68927 | 21913 ft | 395 kts | 122° |
| 2026-05-06 01:50 | 17.20741 | -100.66440 | 21664 ft | 393 kts | 116° |
| 2026-05-06 01:50 | 17.19504 | -100.63884 | 21411 ft | 392 kts | 116° |
| 2026-05-06 01:51 | 17.18216 | -100.61247 | 21147 ft | 390 kts | 117° |
| 2026-05-06 01:51 | 17.16981 | -100.58728 | 20903 ft | 389 kts | 117° |
| 2026-05-06 01:51 | 17.15762 | -100.56245 | 20654 ft | 387 kts | 117° |
| 2026-05-06 01:51 | 17.14520 | -100.53716 | 20404 ft | 385 kts | 117° |
| 2026-05-06 01:52 | 17.13314 | -100.51261 | 20156 ft | 384 kts | 116° |
| 2026-05-06 01:52 | 17.12094 | -100.48779 | 19907 ft | 383 kts | 116° |
| 2026-05-06 01:52 | 17.10879 | -100.46306 | 19653 ft | 381 kts | 116° |
| 2026-05-06 01:52 | 17.09669 | -100.43844 | 19406 ft | 379 kts | 116° |
| 2026-05-06 01:53 | 17.08462 | -100.41390 | 19155 ft | 378 kts | 116° |
| 2026-05-06 01:53 | 17.07265 | -100.38954 | 18904 ft | 375 kts | 116° |
| 2026-05-06 01:53 | 17.06075 | -100.36536 | 18654 ft | 373 kts | 116° |
| 2026-05-06 01:53 | 17.04889 | -100.34126 | 18404 ft | 372 kts | 116° |
| 2026-05-06 01:54 | 17.03706 | -100.31726 | 18155 ft | 371 kts | 116° |
| 2026-05-06 01:54 | 17.02528 | -100.29335 | 17899 ft | 369 kts | 116° |
| 2026-05-06 01:54 | 17.01367 | -100.26980 | 17655 ft | 368 kts | 116° |
| 2026-05-06 01:54 | 17.00196 | -100.24604 | 17414 ft | 368 kts | 116° |
| 2026-05-06 01:55 | 16.99103 | -100.22190 | 17053 ft | 368 kts | 111° |
| 2026-05-06 01:55 | 16.98269 | -100.19640 | 16338 ft | 373 kts | 107° |
| 2026-05-06 01:55 | 16.97473 | -100.17037 | 15550 ft | 377 kts | 107° |
| 2026-05-06 01:55 | 16.96670 | -100.14428 | 14818 ft | 377 kts | 107° |
| 2026-05-06 01:56 | 16.95870 | -100.11844 | 14051 ft | 370 kts | 107° |
| 2026-05-06 01:56 | 16.95083 | -100.09309 | 13340 ft | 362 kts | 107° |
| 2026-05-06 01:56 | 16.94313 | -100.06835 | 12633 ft | 355 kts | 107° |
| 2026-05-06 01:56 | 16.93555 | -100.04403 | 11934 ft | 349 kts | 107° |
| 2026-05-06 01:57 | 16.92813 | -100.02017 | 11243 ft | 343 kts | 107° |
| 2026-05-06 01:57 | 16.92083 | -99.99666 | 10556 ft | 337 kts | 107° |
| 2026-05-06 01:57 | 16.91365 | -99.97357 | 10052 ft | 328 kts | 107° |
| 2026-05-06 01:57 | 16.90680 | -99.95155 | 9814 ft | 311 kts | 108° |
| 2026-05-06 01:58 | 16.90018 | -99.93033 | 9304 ft | 305 kts | 108° |
| 2026-05-06 01:58 | 16.89371 | -99.90955 | 8929 ft | 295 kts | 108° |
| 2026-05-06 01:58 | 16.88727 | -99.88895 | 8806 ft | 305 kts | 108° |
| 2026-05-06 01:58 | 16.88067 | -99.86771 | 8507 ft | 310 kts | 108° |
| 2026-05-06 01:59 | 16.87417 | -99.84679 | 8234 ft | 302 kts | 108° |
| 2026-05-06 01:59 | 16.86769 | -99.82598 | 7681 ft | 300 kts | 108° |
| 2026-05-06 01:59 | 16.86127 | -99.80543 | 7203 ft | 293 kts | 108° |
| 2026-05-06 01:59 | 16.85498 | -99.78532 | 6919 ft | 292 kts | 109° |
| 2026-05-06 02:00 | 16.84864 | -99.76508 | 6616 ft | 293 kts | 109° |
| 2026-05-06 02:00 | 16.84233 | -99.74491 | 6315 ft | 289 kts | 109° |
| 2026-05-06 02:00 | 16.83610 | -99.72503 | 6006 ft | 288 kts | 109° |
| 2026-05-06 02:00 | 16.82984 | -99.70506 | 5588 ft | 290 kts | 109° |
| 2026-05-06 02:01 | 16.82362 | -99.68520 | 5199 ft | 290 kts | 109° |
| 2026-05-06 02:01 | 16.81735 | -99.66516 | 4816 ft | 289 kts | 109° |
| 2026-05-06 02:01 | 16.81121 | -99.64551 | 4632 ft | 279 kts | 109° |
| 2026-05-06 02:01 | 16.80533 | -99.62672 | 4508 ft | 265 kts | 109° |
| 2026-05-06 02:02 | 16.79979 | -99.60898 | 4362 ft | 249 kts | 109° |
| 2026-05-06 02:02 | 16.79453 | -99.59216 | 4187 ft | 239 kts | 109° |
| 2026-05-06 02:02 | 16.78811 | -99.57673 | 4074 ft | 225 kts | 130° |
| 2026-05-06 02:02 | 16.77624 | -99.56735 | 3902 ft | 211 kts | 164° |
| 2026-05-06 02:03 | 16.76209 | -99.56663 | 3576 ft | 204 kts | 199° |
| 2026-05-06 02:03 | 16.74885 | -99.57138 | 3353 ft | 199 kts | 202° |
| 2026-05-06 02:03 | 16.73640 | -99.57591 | 3300 ft | 181 kts | 201° |
| 2026-05-06 02:03 | 16.72496 | -99.57991 | 3193 ft | 166 kts | 201° |
| 2026-05-06 02:04 | 16.71487 | -99.58395 | 3098 ft | 144 kts | 216° |
| 2026-05-06 02:04 | 16.70909 | -99.59152 | 2879 ft | 131 kts | 252° |
| 2026-05-06 02:04 | 16.70885 | -99.60084 | 2571 ft | 131 kts | 285° |
| 2026-05-06 02:04 | 16.71178 | -99.60968 | 2469 ft | 134 kts | 289° |
| 2026-05-06 02:05 | 16.71492 | -99.61890 | 2279 ft | 133 kts | 288° |
| 2026-05-06 02:05 | 16.71783 | -99.62805 | 2109 ft | 133 kts | 287° |
| 2026-05-06 02:05 | 16.72069 | -99.63723 | 1931 ft | 132 kts | 287° |
| 2026-05-06 02:05 | 16.72355 | -99.64640 | 1761 ft | 134 kts | 287° |
| 2026-05-06 02:06 | 16.72645 | -99.65570 | 1579 ft | 135 kts | 287° |
| 2026-05-06 02:06 | 16.72931 | -99.66488 | 1406 ft | 135 kts | 287° |
| 2026-05-06 02:06 | 16.73221 | -99.67419 | 1223 ft | 134 kts | 287° |
| 2026-05-06 02:06 | 16.73510 | -99.68346 | 1044 ft | 134 kts | 288° |
| 2026-05-06 02:07 | 16.73799 | -99.69270 | 867 ft | 134 kts | 287° |
| 2026-05-06 02:07 | 16.74085 | -99.70189 | 684 ft | 133 kts | 287° |
| 2026-05-06 02:07 | 16.74373 | -99.71112 | 510 ft | 134 kts | 287° |
| 2026-05-06 02:07 | 16.74660 | -99.72031 | 331 ft | 133 kts | 288° |
| 2026-05-06 02:08 | 16.74946 | -99.72948 | 157 ft | 133 kts | 288° |
| 2026-05-06 02:08 | 16.75231 | -99.73863 | 18 ft | 126 kts | 288° |
| 2026-05-06 02:08 | 16.75441 | -99.74533 | 18 ft | 68 kts | 288° |
| 2026-05-06 02:08 | 16.75543 | -99.74863 | 19 ft | 41 kts | 288° |
| 2026-05-06 02:09 | 16.75631 | -99.75127 | 19 ft | 30 kts | 291° |
| 2026-05-06 02:09 | 16.75701 | -99.75319 | 19 ft | 28 kts | 289° |
| 2026-05-06 02:09 | 16.75765 | -99.75509 | 21 ft | 27 kts | 289° |
| 2026-05-06 02:09 | 16.75823 | -99.75601 | 21 ft | 8 kts | 27° |
| 2026-05-06 02:10 | 16.75865 | -99.75541 | 19 ft | 12 kts | 66° |
| 2026-05-06 02:10 | 16.75871 | -99.75527 | 19 ft | 0 kts | 68° |
| 2026-05-06 02:10 | 16.75877 | -99.75510 | 18 ft | 6 kts | 68° |
| 2026-05-06 02:10 | 16.75891 | -99.75475 | 18 ft | 5 kts | 68° |
| 2026-05-06 02:11 | 16.75914 | -99.75416 | 17 ft | 12 kts | 68° |
| 2026-05-06 02:11 | 16.75974 | -99.75350 | 17 ft | 14 kts | 23° |
| 2026-05-06 02:11 | 16.76065 | -99.75315 | 19 ft | 0 kts | 16° |